| time (UTC) | temp F | wind direction | speed MPH | gust MPH | rain 1hr in | rain 24hr in | rain mn in | humidity % | barometer mb |
| 20260506023046 | 67 | 274 | 1.0 | 6.0 | 0.00 | 8.46 | 4.47 | 37 | 1012.2 |
| 20260506021543 | 68 | 213 | 0.0 | 4.0 | 0.00 | 8.46 | 4.47 | 37 | 1012.0 |
| 20260506020044 | 68 | 241 | 1.0 | 4.0 | 0.00 | 8.46 | 4.47 | 35 | 1011.6 |
| 20260506014558 | 69 | 314 | 2.0 | 7.0 | 0.00 | 9.07 | 4.47 | 34 | 1011.6 |
| 20260506013049 | 70 | 165 | 2.0 | 8.0 | 0.00 | 9.07 | 4.47 | 32 | 1011.7 |
| 20260506011549 | 71 | 264 | 2.0 | 8.0 | 0.00 | 9.07 | 4.47 | 29 | 1011.5 |
| 20260506010042 | 72 | 262 | 3.0 | 7.0 | 0.00 | 9.07 | 4.47 | 27 | 1011.4 |
| 20260506004610 | 72 | 283 | 4.0 | 12.0 | 0.00 | 9.07 | 4.47 | 26 | 1011.3 |
| 20260506003042 | 72 | 52 | 2.0 | 10.0 | 0.00 | 9.07 | 4.47 | 30 | 1011.3 |
| 20260506001546 | 73 | 253 | 2.0 | 8.0 | 0.00 | 9.07 | 4.47 | 30 | 1011.2 |
| 20260506000051 | 74 | 253 | 3.0 | 11.0 | 0.00 | 9.07 | 4.47 | 30 | 1011.1 |
| 20260505234610 | 75 | 25 | 3.0 | 11.0 | 0.00 | 9.47 | 4.47 | 30 | 1010.9 |
| 20260505233041 | 75 | 317 | 2.0 | 11.0 | 0.00 | 9.47 | 4.47 | 30 | 1010.9 |
| 20260505231541 | 74 | 250 | 3.0 | 9.0 | 0.00 | 9.47 | 4.47 | 31 | 1010.9 |
| 20260505230040 | 75 | 50 | 3.0 | 10.0 | 0.00 | 9.47 | 4.47 | 29 | 1010.9 |
| 20260505224549 | 75 | 38 | 3.0 | 11.0 | 0.00 | 9.47 | 4.47 | 28 | 1011.1 |
| 20260505223101 | 77 | 58 | 5.0 | 11.0 | 0.00 | 9.47 | 4.47 | 25 | 1011.1 |
| 20260505221551 | 77 | 335 | 2.0 | 9.0 | 0.00 | 9.47 | 4.47 | 26 | 1011.2 |
| 20260505220043 | 77 | 271 | 5.0 | 13.0 | 0.00 | 9.47 | 4.47 | 26 | 1011.4 |
| 20260505214559 | 77 | 272 | 4.0 | 13.0 | 0.00 | 9.47 | 4.47 | 27 | 1011.4 |
| 20260505213046 | 75 | 311 | 4.0 | 13.0 | 0.00 | 9.47 | 4.47 | 30 | 1011.6 |
| 20260505211543 | 75 | 216 | 4.0 | 8.0 | 0.00 | 9.47 | 4.47 | 30 | 1011.8 |
| 20260505210043 | 75 | 264 | 2.0 | 8.0 | 0.00 | 9.47 | 4.47 | 32 | 1011.9 |
| 20260505204539 | 74 | 13 | 1.0 | 5.0 | 0.00 | 9.47 | 4.47 | 38 | 1012.1 |
| 20260505203039 | 75 | 239 | 1.0 | 7.0 | 0.00 | 9.47 | 4.47 | 39 | 1012.3 |
| 20260505201602 | 74 | 103 | 1.0 | 4.0 | 0.00 | 9.47 | 4.47 | 43 | 1012.5 |
| 20260505200100 | 74 | 356 | 1.0 | 9.0 | 0.00 | 9.47 | 4.47 | 44 | 1012.5 |
| 20260505194555 | 75 | 278 | 2.0 | 7.0 | 0.00 | 9.47 | 4.47 | 43 | 1012.5 |
| 20260505193048 | 74 | 248 | 2.0 | 8.0 | 0.00 | 9.47 | 4.47 | 45 | 1012.7 |
| 20260505191544 | 74 | 0 | 2.0 | 7.0 | 0.00 | 9.47 | 4.47 | 48 | 1012.9 |
| 20260505190048 | 73 | 218 | 2.0 | 7.0 | 0.00 | 9.47 | 4.47 | 50 | 1013.0 |
| 20260505184542 | 72 | 276 | 1.0 | 5.0 | 0.00 | 9.47 | 4.47 | 53 | 1013.3 |
| 20260505183047 | 71 | 247 | 1.0 | 4.0 | 0.00 | 9.47 | 4.47 | 52 | 1013.4 |
| 20260505181550 | 72 | 352 | 1.0 | 5.0 | 0.00 | 9.47 | 4.47 | 52 | 1013.6 |
| 20260505180050 | 71 | 0 | 1.0 | 6.0 | 0.00 | 9.47 | 4.47 | 54 | 1013.5 |
| 20260505174552 | 69 | 108 | 1.0 | 4.0 | 0.00 | 9.47 | 4.47 | 57 | 1013.7 |
| 20260505173051 | 68 | 0 | 0.0 | 3.0 | 0.00 | 9.47 | 4.47 | 62 | 1013.7 |
| 20260505171554 | 68 | 0 | 0.0 | 4.0 | 0.00 | 9.47 | 4.47 | 61 | 1013.7 |
| 20260505170049 | 66 | 0 | 0.0 | 3.0 | 0.00 | 9.47 | 4.47 | 62 | 1013.7 |
| 20260505164543 | 67 | 256 | 0.0 | 3.0 | 0.00 | 9.47 | 4.47 | 64 | 1013.6 |
| 20260505163042 | 65 | 0 | 0.0 | 2.0 | 0.00 | 9.47 | 4.47 | 68 | 1013.7 |
| 20260505161542 | 63 | 0 | 0.0 | 1.0 | 0.00 | 9.47 | 4.47 | 70 | 1013.4 |
| 20260505153047 | 61 | 0 | 0.0 | 1.0 | 0.00 | 9.47 | 4.47 | 79 | 1013.3 |
| 20260505151544 | 61 | 0 | 0.0 | 1.0 | 0.00 | 9.47 | 4.47 | 81 | 1013.4 |
| 20260505124545 | 58 | 131 | 1.0 | 3.0 | 0.00 | 9.47 | 4.47 | 85 | 1012.4 |
| 20260505123050 | 58 | 0 | 0.0 | 3.0 | 0.00 | 9.47 | 4.47 | 86 | 1012.1 |
| 20260505121544 | 58 | 112 | 1.0 | 3.0 | 0.00 | 9.47 | 4.47 | 87 | 1012.2 |
| 20260505120049 | 57 | 127 | 1.0 | 2.0 | 2.29 | 9.47 | 4.47 | 88 | 1012.3 |
| 20260505114542 | 57 | 108 | 0.0 | 4.0 | 4.58 | 9.47 | 4.47 | 87 | 1012.3 |
| 20260505113038 | 57 | 110 | 1.0 | 4.0 | 4.58 | 9.47 | 4.47 | 87 | 1012.0 |
| 20260505111544 | 57 | 123 | 1.0 | 6.0 | 4.58 | 9.47 | 4.47 | 87 | 1012.2 |
| 20260505101545 | 58 | 97 | 1.0 | 5.0 | 4.57 | 9.01 | 4.01 | 87 | 1013.0 |
| 20260505100043 | 58 | 165 | 1.0 | 5.0 | 4.56 | 8.55 | 3.55 | 87 | 1013.4 |
| 20260505094542 | 58 | 110 | 1.0 | 6.0 | 9.07 | 8.55 | 3.55 | 86 | 1013.1 |
| 20260505093041 | 58 | 86 | 2.0 | 6.0 | 1.13 | 8.55 | 3.55 | 86 | 1013.1 |
| 20260505091542 | 58 | 140 | 2.0 | 6.0 | 1.58 | 8.55 | 3.55 | 87 | 1013.3 |
| 20260505090044 | 58 | 137 | 3.0 | 7.0 | 1.57 | 8.10 | 3.10 | 87 | 1013.2 |
| 20260505084546 | 58 | 198 | 3.0 | 9.0 | 1.34 | 7.64 | 2.65 | 87 | 1013.6 |
| 20260505083038 | 58 | 87 | 3.0 | 6.0 | 1.55 | 7.42 | 2.42 | 88 | 1014.3 |
| 20260505081552 | 58 | 88 | 3.0 | 7.0 | 1.54 | 6.97 | 1.97 | 88 | 1014.7 |
| 20260505080049 | 58 | 102 | 4.0 | 7.0 | 1.53 | 6.53 | 1.53 | 88 | 1014.5 |
| 20260505074540 | 58 | 158 | 1.0 | 7.0 | 1.52 | 6.30 | 1.31 | 87 | 1015.4 |
| 20260505073055 | 59 | 251 | 2.0 | 4.0 | 1.51 | 5.86 | 8.72 | 86 | 1015.4 |
| 20260505071550 | 59 | 0 | 2.0 | 4.0 | 1.50 | 5.43 | 4.35 | 87 | 1015.3 |
| 20260505070055 | 59 | 100 | 0.0 | 3.0 | 1.07 | 4.99 | 0.00 | 86 | 1015.4 |
| 20260505064554 | 59 | 0 | 0.0 | 3.0 | 1.27 | 4.78 | 4.78 | 85 | 1015.5 |
| 20260505063109 | 59 | 90 | 1.0 | 2.0 | 1.06 | 4.35 | 4.35 | 84 | 1015.4 |
| 20260505061552 | 59 | 0 | 0.0 | 4.0 | 8.45 | 3.92 | 3.92 | 84 | 1015.6 |
| 20260505060046 | 59 | 135 | 0.0 | 3.0 | 6.33 | 3.71 | 3.71 | 82 | 1015.8 |
| 20260505054544 | 59 | 136 | 1.0 | 5.0 | 6.30 | 3.50 | 3.50 | 80 | 1015.5 |
| 20260505053059 | 59 | 0 | 0.0 | 2.0 | 8.39 | 3.29 | 3.29 | 80 | 1015.6 |
| 20260505051544 | 59 | 0 | 0.0 | 3.0 | 1.04 | 3.08 | 3.08 | 80 | 1015.5 |
| 20260505041555 | 59 | 119 | 2.0 | 6.0 | 8.22 | 2.03 | 2.03 | 75 | 1015.4 |
| 20260505040054 | 60 | 136 | 1.0 | 9.0 | 6.15 | 1.82 | 1.82 | 70 | 1015.5 |
| 20260505034541 | 60 | 139 | 1.0 | 3.0 | 2.05 | 1.41 | 1.41 | 68 | 1015.1 |
| 20260505033042 | 61 | 117 | 0.0 | 3.0 | 0.00 | 1.21 | 1.21 | 65 | 1014.9 |
| 20260505031545 | 61 | 126 | 1.0 | 8.0 | 0.00 | 1.21 | 1.21 | 62 | 1015.0 |
| 20260505030041 | 60 | 136 | 2.0 | 9.0 | 2.03 | 1.21 | 1.21 | 66 | 1014.3 |
| 20260505024555 | 61 | 141 | 3.0 | 7.0 | 6.09 | 1.21 | 1.21 | 67 | 1014.4 |